createdAt,value
2019-05-22T00:02:27.068Z,96947.20
2019-05-22T00:04:58.259Z,96949.28
2019-05-22T00:07:28.564Z,96946.72
2019-05-22T00:09:58.715Z,96952.99
2019-05-22T00:12:29.024Z,96951.41
2019-05-22T00:14:58.596Z,96948.84
2019-05-22T00:17:30.500Z,96949.42
2019-05-22T00:20:03.412Z,96947.03
2019-05-22T00:22:34.421Z,96945.59
2019-05-22T00:25:05.096Z,96942.82
2019-05-22T00:27:37.018Z,96941.44
2019-05-22T00:30:10.030Z,96940.41
2019-05-22T00:32:41.822Z,96940.36
2019-05-22T00:35:12.602Z,96938.88
2019-05-22T00:37:42.692Z,96946.23
2019-05-22T00:40:15.057Z,96946.95
2019-05-22T00:43:02.562Z,96945.06
2019-05-22T00:45:20.573Z,96944.17
2019-05-22T00:47:52.062Z,96945.06
2019-05-22T00:50:24.582Z,96942.95
2019-05-22T00:52:55.785Z,96942.67
2019-05-22T00:55:47.519Z,96942.80
2019-05-22T00:58:19.708Z,96951.05
2019-05-22T01:00:52.222Z,96951.73
2019-05-22T01:03:23.381Z,96953.33
2019-05-22T01:05:54.469Z,96957.05
2019-05-22T01:08:25.898Z,96959.37
2019-05-22T01:10:56.993Z,96958.27
2019-05-22T01:13:32.556Z,96951.66
2019-05-22T01:16:02.547Z,96953.19
2019-05-22T01:18:32.080Z,96953.57
2019-05-22T01:21:03.296Z,96953.92
2019-05-22T01:23:34.632Z,96959.41
2019-05-22T01:26:05.664Z,96958.55
2019-05-22T01:28:36.962Z,96961.72
2019-05-22T01:31:11.033Z,96955.91
2019-05-22T01:33:44.985Z,96960.46
2019-05-22T01:36:19.260Z,96964.00
2019-05-22T01:38:48.732Z,96963.53
2019-05-22T01:41:34.127Z,96963.88
2019-05-22T01:44:06.863Z,96957.83
2019-05-22T01:46:39.763Z,96960.86
2019-05-22T01:49:12.201Z,96953.44
2019-05-22T01:51:43.009Z,96956.06
2019-05-22T01:54:13.218Z,96958.17
2019-05-22T01:56:43.231Z,96961.72
2019-05-22T01:59:13.523Z,96958.17
2019-05-22T02:01:44.729Z,96957.45
2019-05-22T02:04:15.044Z,96962.27
2019-05-22T02:06:45.039Z,96971.20
2019-05-22T02:09:27.938Z,96976.39
2019-05-22T02:12:00.385Z,96971.98
2019-05-22T02:14:30.707Z,96972.80
2019-05-22T02:17:01.293Z,96961.45
2019-05-22T02:19:31.210Z,96967.70
2019-05-22T02:22:01.662Z,96968.25
2019-05-22T02:24:32.017Z,96961.20
2019-05-22T02:27:03.072Z,96964.38
2019-05-22T02:29:32.726Z,96964.00
2019-05-22T02:32:02.108Z,96969.98
2019-05-22T02:34:31.630Z,96961.71
2019-05-22T02:37:01.545Z,96961.71
2019-05-22T02:39:35.534Z,96973.91
2019-05-22T02:42:12.321Z,96975.52
2019-05-22T02:44:42.675Z,96968.37
2019-05-22T02:47:19.692Z,96967.28
2019-05-22T02:49:45.400Z,96974.83
2019-05-22T02:52:16.599Z,96964.83
2019-05-22T02:54:47.250Z,96960.81
2019-05-22T02:57:17.827Z,96966.51
2019-05-22T02:59:48.469Z,96964.05
2019-05-22T03:02:18.312Z,96972.97
2019-05-22T03:05:01.729Z,96978.71
2019-05-22T03:07:31.608Z,96980.95
2019-05-22T03:10:02.432Z,96979.52
2019-05-22T03:12:33.168Z,96990.27
2019-05-22T03:15:04.030Z,96984.48
2019-05-22T03:17:35.121Z,96993.31
2019-05-22T03:20:12.998Z,96989.55
2019-05-22T03:22:55.300Z,96998.33
2019-05-22T03:25:28.083Z,96995.16
2019-05-22T03:27:57.754Z,97001.12
2019-05-22T03:30:34.499Z,97008.12
2019-05-22T03:33:06.265Z,97007.35
2019-05-22T03:35:47.802Z,96999.10
2019-05-22T03:38:18.996Z,97004.06
2019-05-22T03:40:51.108Z,97004.45
2019-05-22T03:43:26.999Z,97005.01
2019-05-22T03:45:58.975Z,96995.26
2019-05-22T03:48:29.546Z,97006.35
2019-05-22T03:51:20.141Z,97007.64
2019-05-22T03:53:49.910Z,97005.34
2019-05-22T03:56:21.217Z,97005.34
2019-05-22T03:58:50.595Z,97006.32
2019-05-22T04:01:22.085Z,97009.11
2019-05-22T04:03:51.546Z,97013.44
2019-05-22T04:06:23.301Z,97014.13
2019-05-22T04:08:54.124Z,97012.96
2019-05-22T04:11:26.557Z,97017.56
2019-05-22T04:13:55.930Z,97017.79
2019-05-22T04:16:27.498Z,97016.84
2019-05-22T04:18:57.738Z,97016.13
2019-05-22T04:21:30.307Z,97020.25
2019-05-22T04:24:00.674Z,97020.94
2019-05-22T04:26:32.762Z,97019.30
2019-05-22T04:29:03.465Z,97029.81
2019-05-22T04:31:42.028Z,97020.69
2019-05-22T04:34:11.848Z,97020.83
2019-05-22T04:36:41.224Z,97024.64
2019-05-22T04:39:15.530Z,97025.91
2019-05-22T04:41:45.476Z,97021.22
2019-05-22T04:44:15.395Z,97021.80
2019-05-22T04:46:44.830Z,97026.98
2019-05-22T04:49:14.376Z,97028.98
2019-05-22T04:51:44.231Z,97029.81
2019-05-22T04:54:13.780Z,97023.66
2019-05-22T04:56:43.948Z,97027.94
2019-05-22T04:59:14.426Z,97028.56
2019-05-22T05:01:43.877Z,97031.48
2019-05-22T05:04:14.013Z,97034.02
2019-05-22T05:06:44.167Z,97033.80
2019-05-22T05:09:15.827Z,97039.31
2019-05-22T05:11:45.421Z,97031.38
2019-05-22T05:14:14.883Z,97041.74
2019-05-22T05:16:44.407Z,97032.38
2019-05-22T05:19:13.886Z,97034.66
2019-05-22T05:21:44.199Z,97033.63
2019-05-22T05:24:14.049Z,97032.73
2019-05-22T05:26:44.550Z,97037.61
2019-05-22T05:29:28.549Z,97039.64
2019-05-22T05:31:59.672Z,97039.41
2019-05-22T05:34:32.357Z,97050.44
2019-05-22T05:37:03.228Z,97048.77
2019-05-22T05:39:40.020Z,97059.23
2019-05-22T05:42:09.764Z,97068.88
2019-05-22T05:44:39.227Z,97066.97
2019-05-22T05:47:09.356Z,97061.66
2019-05-22T05:49:39.192Z,97057.71
2019-05-22T05:52:10.278Z,97071.53
2019-05-22T05:54:41.616Z,97072.02
2019-05-22T05:57:37.631Z,97064.66
2019-05-22T06:00:14.090Z,97067.75
2019-05-22T06:02:56.011Z,97073.53
2019-05-22T06:05:16.312Z,97077.14
2019-05-22T06:07:45.939Z,97069.77
2019-05-22T06:10:31.331Z,97068.78
2019-05-22T06:13:01.637Z,97070.09
2019-05-22T06:15:46.588Z,97067.05
2019-05-22T06:18:21.104Z,97063.62
2019-05-22T06:21:03.219Z,97066.24
2019-05-22T06:23:31.934Z,97069.05
2019-05-22T06:26:02.429Z,97074.27
2019-05-22T06:28:39.222Z,97076.20
2019-05-22T06:31:13.298Z,97077.26
2019-05-22T06:33:43.029Z,97082.58
2019-05-22T06:36:14.318Z,97083.02
2019-05-22T06:38:53.269Z,97075.09
2019-05-22T06:41:28.250Z,97079.50
2019-05-22T06:44:20.034Z,97087.16
2019-05-22T06:46:48.779Z,97081.69
2019-05-22T06:49:35.907Z,97076.31
2019-05-22T06:52:07.518Z,97086.14
2019-05-22T06:54:38.413Z,97088.86
2019-05-22T06:57:13.664Z,97083.21
2019-05-22T06:59:43.565Z,97083.45
2019-05-22T07:02:15.216Z,97088.47
2019-05-22T07:04:44.990Z,97081.45
2019-05-22T07:07:15.601Z,97084.40
2019-05-22T07:09:45.630Z,97087.56
2019-05-22T07:12:18.189Z,97079.55
2019-05-22T07:15:06.752Z,97080.38
2019-05-22T07:17:37.352Z,97074.61
2019-05-22T07:20:08.178Z,97071.67
2019-05-22T07:22:37.892Z,97067.89
2019-05-22T07:25:09.506Z,97062.59
2019-05-22T07:27:41.169Z,97062.44
2019-05-22T07:30:11.057Z,97061.04
2019-05-22T07:32:40.946Z,97063.02
2019-05-22T07:35:10.552Z,97054.19
2019-05-22T07:37:42.613Z,97055.44
2019-05-22T07:40:13.435Z,97055.34
2019-05-22T07:42:42.897Z,97061.95
2019-05-22T07:45:13.428Z,97055.73
2019-05-22T07:47:42.874Z,97059.64
2019-05-22T07:50:13.353Z,97053.75
2019-05-22T07:52:43.695Z,97060.89
2019-05-22T07:55:14.241Z,97047.44
2019-05-22T07:57:46.952Z,97058.67
2019-05-22T08:00:17.272Z,97053.43
2019-05-22T08:02:49.091Z,97065.14
2019-05-22T08:05:21.244Z,97060.52
2019-05-22T08:07:52.901Z,97055.88
2019-05-22T08:10:22.720Z,97065.09
2019-05-22T08:12:53.604Z,97067.23
2019-05-22T08:15:23.821Z,97062.58
2019-05-22T08:17:53.495Z,97066.44
2019-05-22T08:20:23.318Z,97069.74
2019-05-22T08:22:55.469Z,97069.59
2019-05-22T08:25:25.445Z,97069.75
2019-05-22T08:27:56.052Z,97063.73
2019-05-22T08:30:25.829Z,97066.06
2019-05-22T08:32:58.375Z,97073.22
2019-05-22T08:35:28.431Z,97069.21
2019-05-22T08:37:58.290Z,97054.08
2019-05-22T08:40:28.864Z,97059.59
2019-05-22T08:42:58.585Z,97059.30
2019-05-22T08:45:28.786Z,97056.88
2019-05-22T08:47:58.841Z,97062.42
2019-05-22T08:50:31.073Z,97063.09
2019-05-22T08:53:01.024Z,97067.50
2019-05-22T08:55:34.212Z,97066.37
2019-05-22T08:58:05.874Z,97070.66
2019-05-22T09:00:35.564Z,97062.03
2019-05-22T09:03:05.856Z,97069.38
2019-05-22T09:05:35.402Z,97077.09
2019-05-22T09:08:04.969Z,97076.67
2019-05-22T09:10:34.529Z,97075.66
2019-05-22T09:13:04.347Z,97079.76
2019-05-22T09:15:34.923Z,97088.10
2019-05-22T09:18:05.020Z,97084.36
2019-05-22T09:20:48.129Z,97085.74
2019-05-22T09:23:06.104Z,97088.63
2019-05-22T09:25:35.686Z,97091.02
2019-05-22T09:28:06.691Z,97089.85
2019-05-22T09:30:37.537Z,97094.47
2019-05-22T09:33:08.819Z,97100.17
2019-05-22T09:35:38.567Z,97104.63
2019-05-22T09:38:07.967Z,97102.50
2019-05-22T09:40:37.775Z,97094.29
2019-05-22T09:43:07.220Z,97092.21
2019-05-22T09:45:36.952Z,97104.25
2019-05-22T09:48:07.823Z,97107.31
2019-05-22T09:50:38.918Z,97110.23
2019-05-22T09:53:09.216Z,97115.48
2019-05-22T09:55:39.509Z,97118.17
2019-05-22T09:58:09.035Z,97116.94
2019-05-22T10:00:39.184Z,97124.16
2019-05-22T10:03:09.126Z,97121.16
2019-05-22T10:05:38.727Z,97132.16
2019-05-22T10:08:08.831Z,97129.65
2019-05-22T10:10:39.668Z,97130.33
2019-05-22T10:13:09.699Z,97134.13
2019-05-22T10:15:39.824Z,97133.22
2019-05-22T10:18:09.445Z,97130.16
2019-05-22T10:20:39.450Z,97130.96
2019-05-22T10:23:15.514Z,97129.90
2019-05-22T10:25:41.071Z,97131.39
2019-05-22T10:28:12.133Z,97131.74
2019-05-22T10:30:41.660Z,97126.17
2019-05-22T10:33:11.228Z,97124.31
2019-05-22T10:35:41.099Z,97126.77
2019-05-22T10:38:10.508Z,97117.94
2019-05-22T10:40:40.000Z,97120.87
2019-05-22T10:43:09.652Z,97118.98
2019-05-22T10:45:39.428Z,97126.81
2019-05-22T10:48:08.886Z,97129.96
2019-05-22T10:50:38.913Z,97127.48
2019-05-22T10:53:09.102Z,97127.42
2019-05-22T10:55:39.499Z,97114.37
2019-05-22T10:58:09.619Z,97117.86
2019-05-22T11:00:40.036Z,97134.76
2019-05-22T11:03:10.084Z,97128.91
2019-05-22T11:05:41.452Z,97135.72
2019-05-22T11:08:12.111Z,97123.36
2019-05-22T11:10:45.033Z,97121.17
2019-05-22T11:13:12.983Z,97129.63
2019-05-22T11:15:42.366Z,97132.34
2019-05-22T11:18:12.028Z,97126.84
2019-05-22T11:20:43.211Z,97115.95
2019-05-22T11:23:12.870Z,97128.23
2019-05-22T11:25:42.254Z,97128.19
2019-05-22T11:28:11.724Z,97141.19
2019-05-22T11:30:42.596Z,97140.53
2019-05-22T11:33:12.265Z,97147.14
2019-05-22T11:35:41.989Z,97143.52
2019-05-22T11:38:12.028Z,97141.85
2019-05-22T11:40:42.679Z,97153.78
2019-05-22T11:43:13.062Z,97140.78
2019-05-22T11:45:45.352Z,97146.66
2019-05-22T11:48:14.638Z,97146.50
2019-05-22T11:50:44.569Z,97146.83
2019-05-22T11:53:14.821Z,97141.83
2019-05-22T11:55:46.084Z,97156.67
2019-05-22T11:58:15.490Z,97152.95
2019-05-22T12:00:46.119Z,97145.64
2019-05-22T12:03:15.635Z,97148.42
2019-05-22T12:05:45.789Z,97142.72
2019-05-22T12:08:15.733Z,97143.77
2019-05-22T12:10:45.676Z,97133.69
2019-05-22T12:13:15.492Z,97146.23
2019-05-22T12:15:45.351Z,97152.83
2019-05-22T12:18:15.889Z,97140.29
2019-05-22T12:20:46.446Z,97151.11
2019-05-22T12:23:16.086Z,97145.39
2019-05-22T12:25:46.522Z,97146.59
2019-05-22T12:28:16.597Z,97142.37
2019-05-22T12:30:47.999Z,97144.55
2019-05-22T12:33:18.324Z,97151.25
2019-05-22T12:35:49.210Z,97150.09
2019-05-22T12:38:19.441Z,97144.48
2019-05-22T12:40:48.926Z,97149.61
2019-05-22T12:43:18.620Z,97151.45
2019-05-22T12:45:49.040Z,97151.33
2019-05-22T12:48:19.942Z,97163.75
2019-05-22T12:50:49.386Z,97154.62
2019-05-22T12:53:19.031Z,97159.03
2019-05-22T12:55:49.387Z,97153.24
2019-05-22T12:58:20.338Z,97156.77
2019-05-22T13:00:50.717Z,97157.00
2019-05-22T13:03:20.742Z,97154.00
2019-05-22T13:05:50.744Z,97155.16
2019-05-22T13:08:21.025Z,97151.70
2019-05-22T13:10:52.424Z,97159.16
2019-05-22T13:13:22.717Z,97156.42
2019-05-22T13:15:52.438Z,97151.63
2019-05-22T13:18:24.029Z,97146.42
2019-05-22T13:20:54.263Z,97146.78
2019-05-22T13:23:26.695Z,97147.88
2019-05-22T13:25:56.315Z,97149.34
2019-05-22T13:28:28.349Z,97147.77
2019-05-22T13:30:59.863Z,97149.11
2019-05-22T13:33:29.396Z,97142.47
2019-05-22T13:35:59.506Z,97134.16
2019-05-22T13:38:29.129Z,97148.14
2019-05-22T13:40:58.813Z,97145.97
2019-05-22T13:43:28.661Z,97146.17
2019-05-22T13:45:58.126Z,97143.17
2019-05-22T13:48:28.320Z,97148.36
2019-05-22T13:50:59.263Z,97153.33
2019-05-22T13:53:29.613Z,97147.81
2019-05-22T13:55:59.622Z,97154.11
2019-05-22T13:58:30.051Z,97149.79
2019-05-22T14:00:59.806Z,97143.31
2019-05-22T14:03:29.653Z,97146.48
2019-05-22T14:05:59.417Z,97153.67
2019-05-22T14:08:29.755Z,97156.67
2019-05-22T14:10:59.259Z,97152.81
2019-05-22T14:13:29.197Z,97147.52
2019-05-22T14:15:59.017Z,97148.20
2019-05-22T14:18:29.527Z,97148.98
2019-05-22T14:20:59.094Z,97154.55
2019-05-22T14:23:29.145Z,97155.78
2019-05-22T14:25:59.663Z,97153.17
2019-05-22T14:28:30.047Z,97156.00
2019-05-22T14:30:59.513Z,97146.06
2019-05-22T14:33:30.122Z,97148.27
2019-05-22T14:35:59.672Z,97155.45
2019-05-22T14:38:30.325Z,97143.67
2019-05-22T14:41:01.428Z,97147.81
2019-05-22T14:43:31.228Z,97141.42
2019-05-22T14:46:01.435Z,97144.13
2019-05-22T14:48:31.220Z,97138.72
2019-05-22T14:51:01.371Z,97134.45
2019-05-22T14:53:31.794Z,97125.87
2019-05-22T14:56:01.925Z,97130.58
2019-05-22T14:58:32.633Z,97120.02
2019-05-22T15:01:02.616Z,97127.11
2019-05-22T15:03:32.880Z,97129.24
2019-05-22T15:06:02.542Z,97134.71
2019-05-22T15:08:33.240Z,97135.02
2019-05-22T15:11:03.103Z,97138.00
2019-05-22T15:13:34.212Z,97138.36
2019-05-22T15:16:03.680Z,97130.48
2019-05-22T15:18:34.069Z,97131.33
2019-05-22T15:21:09.432Z,97131.97
2019-05-22T15:23:39.366Z,97128.61
2019-05-22T15:26:09.275Z,97130.52
2019-05-22T15:28:39.419Z,97133.91
2019-05-22T15:31:09.120Z,97130.52
2019-05-22T15:33:39.253Z,97138.36
2019-05-22T15:36:10.537Z,97139.14
2019-05-22T15:38:40.938Z,97129.38
2019-05-22T15:41:11.415Z,97137.30
2019-05-22T15:43:44.381Z,97144.90
2019-05-22T15:46:15.730Z,97143.53
2019-05-22T15:48:47.423Z,97139.92
2019-05-22T15:51:18.416Z,97141.30
2019-05-22T15:53:48.086Z,97138.06
2019-05-22T15:56:18.914Z,97149.09
2019-05-22T15:58:51.479Z,97144.47
2019-05-22T16:01:22.577Z,97139.75
2019-05-22T16:03:53.266Z,97145.64
2019-05-22T16:06:25.968Z,97144.95
2019-05-22T16:08:57.297Z,97149.72
2019-05-22T16:11:27.598Z,97142.94
2019-05-22T16:13:59.647Z,97154.14
2019-05-22T16:16:30.330Z,97149.79
2019-05-22T16:19:03.022Z,97149.57
2019-05-22T16:21:33.422Z,97154.59
2019-05-22T16:24:03.988Z,97160.05
2019-05-22T16:26:33.489Z,97166.61
2019-05-22T16:29:03.408Z,97170.47
2019-05-22T16:31:33.397Z,97173.07
2019-05-22T16:34:02.869Z,97171.81
2019-05-22T16:36:33.152Z,97176.08
2019-05-22T16:39:04.288Z,97179.81
2019-05-22T16:41:34.816Z,97184.36
2019-05-22T16:44:04.648Z,97193.84
2019-05-22T16:46:35.182Z,97193.27
2019-05-22T16:49:04.796Z,97191.57
2019-05-22T16:51:34.828Z,97197.19
2019-05-22T16:54:08.014Z,97195.02
2019-05-22T16:56:40.492Z,97198.38
2019-05-22T16:59:11.897Z,97212.08
2019-05-22T17:01:57.759Z,97197.80
2019-05-22T17:04:14.552Z,97213.67
2019-05-22T17:06:45.292Z,97202.20
2019-05-22T17:09:16.475Z,97210.42
2019-05-22T17:11:46.968Z,97217.53
2019-05-22T17:14:18.005Z,97217.53
2019-05-22T17:16:47.451Z,97226.96
2019-05-22T17:19:27.051Z,97234.69
2019-05-22T17:21:50.212Z,97237.69
2019-05-22T17:24:20.031Z,97233.54
2019-05-22T17:26:52.476Z,97239.61
2019-05-22T17:29:23.342Z,97253.77
2019-05-22T17:31:53.322Z,97259.83
2019-05-22T17:34:33.500Z,97261.85
2019-05-22T17:37:27.915Z,97275.44
2019-05-22T17:39:57.654Z,97271.48
2019-05-22T17:42:28.027Z,97276.11
2019-05-22T17:44:57.673Z,97283.91
2019-05-22T17:47:27.736Z,97289.34
2019-05-22T17:49:58.781Z,97288.11
2019-05-22T17:52:28.494Z,97300.42
2019-05-22T17:54:58.721Z,97297.10
2019-05-22T17:57:29.672Z,97295.57
2019-05-22T17:59:59.341Z,97306.72
2019-05-22T18:02:30.670Z,97307.49
2019-05-22T18:05:01.955Z,97301.42
2019-05-22T18:07:33.510Z,97307.06
2019-05-22T18:10:03.465Z,97311.01
2019-05-22T18:12:33.896Z,97306.97
2019-05-22T18:15:04.380Z,97314.52
2019-05-22T18:17:33.926Z,97307.08
2019-05-22T18:20:04.544Z,97312.13
2019-05-22T18:22:34.268Z,97316.11
2019-05-22T18:25:05.163Z,97316.75
2019-05-22T18:27:35.221Z,97314.22
2019-05-22T18:30:08.927Z,97323.69
2019-05-22T18:32:41.857Z,97323.20
2019-05-22T18:35:13.961Z,97315.31
2019-05-22T18:37:43.486Z,97319.66
2019-05-22T18:40:13.811Z,97326.78
2019-05-22T18:42:43.366Z,97330.78
2019-05-22T18:45:13.772Z,97344.48
2019-05-22T18:47:44.090Z,97339.97
2019-05-22T18:50:14.791Z,97337.48
2019-05-22T18:52:48.933Z,97341.55
2019-05-22T18:55:20.801Z,97342.50
2019-05-22T18:57:50.341Z,97350.77
2019-05-22T19:00:23.163Z,97339.21
2019-05-22T19:02:52.855Z,97349.34
2019-05-22T19:05:25.363Z,97352.61
2019-05-22T19:07:55.099Z,97351.95
2019-05-22T19:10:24.803Z,97357.37
2019-05-22T19:12:54.273Z,97363.28
2019-05-22T19:15:24.867Z,97364.70
2019-05-22T19:17:54.585Z,97368.34
2019-05-22T19:20:24.211Z,97382.75
2019-05-22T19:23:00.547Z,97382.75
2019-05-22T19:25:25.740Z,97384.48
2019-05-22T19:27:55.183Z,97391.60
2019-05-22T19:30:26.298Z,97387.27
2019-05-22T19:32:56.149Z,97390.45
2019-05-22T19:35:25.622Z,97389.06
2019-05-22T19:37:55.813Z,97394.75
2019-05-22T19:40:26.243Z,97398.84
2019-05-22T19:42:57.325Z,97399.16
2019-05-22T19:45:30.610Z,97399.64
2019-05-22T19:47:58.590Z,97400.19
2019-05-22T19:50:29.181Z,97401.00
2019-05-22T19:53:15.729Z,97403.98
2019-05-22T19:55:31.248Z,97399.78
2019-05-22T19:58:01.461Z,97409.49
2019-05-22T20:00:31.721Z,97414.63
2019-05-22T20:03:02.044Z,97414.02
2019-05-22T20:05:33.294Z,97412.68
2019-05-22T20:08:03.504Z,97417.64
2019-05-22T20:10:33.894Z,97415.94
2019-05-22T20:13:05.666Z,97423.41
2019-05-22T20:15:35.156Z,97421.48
2019-05-22T20:18:04.917Z,97414.02
2019-05-22T20:20:34.702Z,97416.11
2019-05-22T20:23:05.111Z,97415.17
2019-05-22T20:25:35.722Z,97417.13
2019-05-22T20:28:07.028Z,97411.16
2019-05-22T20:30:36.717Z,97404.83
2019-05-22T20:33:07.985Z,97409.56
2019-05-22T20:35:37.920Z,97411.78
2019-05-22T20:38:08.065Z,97412.36
2019-05-22T20:40:37.757Z,97408.25
2019-05-22T20:43:08.848Z,97412.00
2019-05-22T20:45:40.943Z,97413.76
2019-05-22T20:48:13.798Z,97415.06
2019-05-22T20:50:44.052Z,97411.66
2019-05-22T20:53:16.144Z,97422.70
2019-05-22T20:55:46.546Z,97426.55
2019-05-22T20:58:17.739Z,97417.20
2019-05-22T21:00:49.020Z,97422.50
2019-05-22T21:03:21.553Z,97414.36
2019-05-22T21:05:52.838Z,97422.45
2019-05-22T21:08:25.156Z,97421.81
2019-05-22T21:10:56.285Z,97428.71
2019-05-22T21:13:26.118Z,97425.16
2019-05-22T21:15:56.059Z,97421.64
2019-05-22T21:18:28.329Z,97419.89
2019-05-22T21:20:57.723Z,97416.27
2019-05-22T21:23:29.298Z,97418.66
2019-05-22T21:25:58.098Z,97423.24
2019-05-22T21:28:28.014Z,97421.66
2019-05-22T21:30:57.642Z,97417.14
2019-05-22T21:33:27.983Z,97418.95
2019-05-22T21:35:57.653Z,97422.32
2019-05-22T21:38:27.091Z,97425.50
2019-05-22T21:40:58.637Z,97421.06
2019-05-22T21:43:29.325Z,97411.26
2019-05-22T21:45:59.587Z,97421.02
2019-05-22T21:48:29.808Z,97422.02
2019-05-22T21:51:00.545Z,97419.82
2019-05-22T21:53:30.514Z,97427.89
2019-05-22T21:56:04.705Z,97427.20
2019-05-22T21:58:32.091Z,97434.33
2019-05-22T22:01:04.754Z,97429.61
2019-05-22T22:03:38.750Z,97441.14
2019-05-22T22:06:08.311Z,97443.67
2019-05-22T22:08:37.978Z,97438.23
2019-05-22T22:11:08.721Z,97441.75
2019-05-22T22:13:39.049Z,97447.02
2019-05-22T22:16:08.583Z,97443.16
2019-05-22T22:18:39.941Z,97451.59
2019-05-22T22:21:09.614Z,97446.20
2019-05-22T22:23:40.851Z,97439.45
2019-05-22T22:26:24.717Z,97439.45
2019-05-22T22:28:42.458Z,97439.80
2019-05-22T22:31:20.414Z,97452.28
2019-05-22T22:33:52.933Z,97451.29
2019-05-22T22:36:23.030Z,97441.14
2019-05-22T22:38:54.122Z,97442.84
2019-05-22T22:41:24.106Z,97442.02
2019-05-22T22:43:55.000Z,97438.62
2019-05-22T22:46:45.964Z,97441.16
2019-05-22T22:49:17.324Z,97439.80
2019-05-22T22:51:48.913Z,97446.88
2019-05-22T22:54:19.511Z,97446.56
2019-05-22T22:56:49.172Z,97442.16
2019-05-22T22:59:18.922Z,97443.19
2019-05-22T23:01:52.676Z,97444.18
2019-05-22T23:04:24.527Z,97448.55
2019-05-22T23:06:57.459Z,97447.88
2019-05-22T23:09:27.690Z,97444.86
2019-05-22T23:11:57.618Z,97448.24
2019-05-22T23:14:27.658Z,97449.05
2019-05-22T23:16:57.171Z,97454.61
2019-05-22T23:19:33.540Z,97447.87
2019-05-22T23:22:03.245Z,97461.55
2019-05-22T23:24:33.973Z,97459.20
2019-05-22T23:27:04.962Z,97455.67
2019-05-22T23:29:34.812Z,97453.62
2019-05-22T23:32:06.193Z,97458.19
2019-05-22T23:34:36.151Z,97456.02
2019-05-22T23:37:07.586Z,97457.69
2019-05-22T23:39:37.205Z,97453.64
2019-05-22T23:42:10.031Z,97453.65
2019-05-22T23:44:41.084Z,97455.83
2019-05-22T23:47:11.312Z,97450.78
2019-05-22T23:49:41.438Z,97455.84
2019-05-22T23:52:12.903Z,97461.73
2019-05-22T23:54:44.066Z,97464.94
2019-05-22T23:57:15.458Z,97466.30
2019-05-22T23:59:47.048Z,97465.80
